sensor_id;sensor_type;location;lat;lon;timestamp;P1;durP1;ratioP1;P2;durP2;ratioP2
29452;SDS011;16424;50.956;5.320;2022-12-07T00:01:08;24.15;;;14.45;;
29452;SDS011;16424;50.956;5.320;2022-12-07T00:03:38;27.52;;;15.27;;
29452;SDS011;16424;50.956;5.320;2022-12-07T00:06:05;29.50;;;15.40;;
29452;SDS011;16424;50.956;5.320;2022-12-07T00:08:32;24.85;;;15.13;;
29452;SDS011;16424;50.956;5.320;2022-12-07T00:11:05;25.75;;;14.65;;
29452;SDS011;16424;50.956;5.320;2022-12-07T00:13:36;26.63;;;14.98;;
29452;SDS011;16424;50.956;5.320;2022-12-07T00:16:07;29.38;;;16.23;;
29452;SDS011;16424;50.956;5.320;2022-12-07T00:18:34;27.58;;;15.85;;
29452;SDS011;16424;50.956;5.320;2022-12-07T00:21:01;33.08;;;16.60;;
29452;SDS011;16424;50.956;5.320;2022-12-07T00:23:29;24.52;;;15.63;;
29452;SDS011;16424;50.956;5.320;2022-12-07T00:25:54;24.40;;;15.15;;
29452;SDS011;16424;50.956;5.320;2022-12-07T00:28:20;30.13;;;16.95;;
29452;SDS011;16424;50.956;5.320;2022-12-07T00:30:46;34.17;;;18.15;;
29452;SDS011;16424;50.956;5.320;2022-12-07T00:33:11;29.27;;;15.25;;
29452;SDS011;16424;50.956;5.320;2022-12-07T00:35:37;33.65;;;16.27;;
29452;SDS011;16424;50.956;5.320;2022-12-07T00:38:02;31.83;;;16.70;;
29452;SDS011;16424;50.956;5.320;2022-12-07T00:40:28;28.70;;;16.67;;
29452;SDS011;16424;50.956;5.320;2022-12-07T00:42:54;30.02;;;17.48;;
29452;SDS011;16424;50.956;5.320;2022-12-07T00:45:19;34.22;;;17.67;;
29452;SDS011;16424;50.956;5.320;2022-12-07T00:47:45;36.00;;;19.08;;
29452;SDS011;16424;50.956;5.320;2022-12-07T00:50:11;33.83;;;18.35;;
29452;SDS011;16424;50.956;5.320;2022-12-07T00:52:36;34.35;;;18.52;;
29452;SDS011;16424;50.956;5.320;2022-12-07T00:55:02;30.25;;;19.15;;
29452;SDS011;16424;50.956;5.320;2022-12-07T00:57:28;31.77;;;19.30;;
29452;SDS011;16424;50.956;5.320;2022-12-07T00:59:55;37.92;;;21.27;;
29452;SDS011;16424;50.956;5.320;2022-12-07T01:02:22;34.97;;;19.58;;
29452;SDS011;16424;50.956;5.320;2022-12-07T01:04:48;37.17;;;19.85;;
29452;SDS011;16424;50.956;5.320;2022-12-07T01:07:14;37.60;;;19.98;;
29452;SDS011;16424;50.956;5.320;2022-12-07T01:09:39;35.92;;;19.52;;
29452;SDS011;16424;50.956;5.320;2022-12-07T01:12:05;34.72;;;19.27;;
29452;SDS011;16424;50.956;5.320;2022-12-07T01:14:31;33.72;;;19.83;;
29452;SDS011;16424;50.956;5.320;2022-12-07T01:16:56;37.08;;;19.67;;
29452;SDS011;16424;50.956;5.320;2022-12-07T01:19:22;34.10;;;19.63;;
29452;SDS011;16424;50.956;5.320;2022-12-07T01:21:47;35.40;;;20.52;;
29452;SDS011;16424;50.956;5.320;2022-12-07T01:24:13;36.38;;;19.83;;
29452;SDS011;16424;50.956;5.320;2022-12-07T01:26:39;33.65;;;19.23;;
29452;SDS011;16424;50.956;5.320;2022-12-07T01:29:04;35.15;;;19.17;;
29452;SDS011;16424;50.956;5.320;2022-12-07T01:31:30;36.17;;;19.48;;
29452;SDS011;16424;50.956;5.320;2022-12-07T01:33:57;36.08;;;19.23;;
29452;SDS011;16424;50.956;5.320;2022-12-07T01:38:52;35.05;;;19.13;;
29452;SDS011;16424;50.956;5.320;2022-12-07T01:41:21;31.88;;;19.25;;
29452;SDS011;16424;50.956;5.320;2022-12-07T01:44:08;35.42;;;18.58;;
29452;SDS011;16424;50.956;5.320;2022-12-07T01:46:34;32.88;;;18.40;;
29452;SDS011;16424;50.956;5.320;2022-12-07T01:49:00;29.20;;;16.15;;
29452;SDS011;16424;50.956;5.320;2022-12-07T01:51:28;32.40;;;17.33;;
29452;SDS011;16424;50.956;5.320;2022-12-07T01:53:54;29.40;;;17.33;;
29452;SDS011;16424;50.956;5.320;2022-12-07T01:56:20;27.05;;;16.90;;
29452;SDS011;16424;50.956;5.320;2022-12-07T01:58:50;30.40;;;17.30;;
29452;SDS011;16424;50.956;5.320;2022-12-07T02:01:17;29.98;;;17.25;;
29452;SDS011;16424;50.956;5.320;2022-12-07T02:03:43;35.53;;;17.40;;
29452;SDS011;16424;50.956;5.320;2022-12-07T02:06:11;29.15;;;18.60;;
29452;SDS011;16424;50.956;5.320;2022-12-07T02:08:41;31.42;;;16.45;;
29452;SDS011;16424;50.956;5.320;2022-12-07T02:11:07;24.95;;;15.10;;
29452;SDS011;16424;50.956;5.320;2022-12-07T02:13:35;27.02;;;17.35;;
29452;SDS011;16424;50.956;5.320;2022-12-07T02:27:52;27.50;;;17.20;;
29452;SDS011;16424;50.956;5.320;2022-12-07T02:30:31;33.20;;;17.10;;
29452;SDS011;16424;50.956;5.320;2022-12-07T02:32:59;26.15;;;17.23;;
29452;SDS011;16424;50.956;5.320;2022-12-07T02:35:43;29.10;;;18.30;;
29452;SDS011;16424;50.956;5.320;2022-12-07T02:38:20;31.60;;;17.90;;
29452;SDS011;16424;50.956;5.320;2022-12-07T02:40:57;31.60;;;18.45;;
29452;SDS011;16424;50.956;5.320;2022-12-07T02:43:26;32.35;;;18.13;;
29452;SDS011;16424;50.956;5.320;2022-12-07T02:45:57;33.60;;;19.08;;
29452;SDS011;16424;50.956;5.320;2022-12-07T02:48:26;27.55;;;17.63;;
29452;SDS011;16424;50.956;5.320;2022-12-07T02:50:53;30.13;;;17.70;;
29452;SDS011;16424;50.956;5.320;2022-12-07T02:53:29;34.88;;;18.15;;
29452;SDS011;16424;50.956;5.320;2022-12-07T02:56:01;32.60;;;17.48;;
29452;SDS011;16424;50.956;5.320;2022-12-07T03:01:26;28.63;;;17.00;;
29452;SDS011;16424;50.956;5.320;2022-12-07T03:07:18;32.00;;;18.63;;
29452;SDS011;16424;50.956;5.320;2022-12-07T03:10:24;31.83;;;18.35;;
29452;SDS011;16424;50.956;5.320;2022-12-07T03:15:26;29.48;;;17.80;;
29452;SDS011;16424;50.956;5.320;2022-12-07T03:18:00;34.65;;;17.73;;
29452;SDS011;16424;50.956;5.320;2022-12-07T03:20:29;28.20;;;17.95;;
29452;SDS011;16424;50.956;5.320;2022-12-07T03:22:56;32.60;;;18.33;;
29452;SDS011;16424;50.956;5.320;2022-12-07T03:25:24;32.28;;;19.88;;
29452;SDS011;16424;50.956;5.320;2022-12-07T03:28:02;33.80;;;19.27;;
29452;SDS011;16424;50.956;5.320;2022-12-07T03:30:47;41.05;;;19.83;;
29452;SDS011;16424;50.956;5.320;2022-12-07T03:33:22;31.05;;;19.52;;
29452;SDS011;16424;50.956;5.320;2022-12-07T03:35:58;32.70;;;18.58;;
29452;SDS011;16424;50.956;5.320;2022-12-07T03:38:34;28.65;;;19.00;;
29452;SDS011;16424;50.956;5.320;2022-12-07T03:43:47;32.20;;;18.52;;
29452;SDS011;16424;50.956;5.320;2022-12-07T03:52:25;34.25;;;19.88;;
29452;SDS011;16424;50.956;5.320;2022-12-07T03:57:23;34.42;;;19.17;;
29452;SDS011;16424;50.956;5.320;2022-12-07T03:59:53;38.15;;;20.25;;
29452;SDS011;16424;50.956;5.320;2022-12-07T04:02:21;38.67;;;21.08;;
29452;SDS011;16424;50.956;5.320;2022-12-07T04:04:48;35.03;;;20.48;;
29452;SDS011;16424;50.956;5.320;2022-12-07T04:07:14;35.60;;;20.50;;
29452;SDS011;16424;50.956;5.320;2022-12-07T04:09:40;32.72;;;19.90;;
29452;SDS011;16424;50.956;5.320;2022-12-07T04:12:05;35.60;;;21.25;;
29452;SDS011;16424;50.956;5.320;2022-12-07T04:14:31;37.67;;;21.67;;
29452;SDS011;16424;50.956;5.320;2022-12-07T04:16:57;40.72;;;22.27;;
29452;SDS011;16424;50.956;5.320;2022-12-07T04:19:24;35.97;;;20.13;;
29452;SDS011;16424;50.956;5.320;2022-12-07T04:21:52;34.05;;;20.05;;
29452;SDS011;16424;50.956;5.320;2022-12-07T04:24:17;34.67;;;20.48;;
29452;SDS011;16424;50.956;5.320;2022-12-07T04:26:45;36.50;;;21.33;;
29452;SDS011;16424;50.956;5.320;2022-12-07T04:29:11;41.85;;;22.60;;
29452;SDS011;16424;50.956;5.320;2022-12-07T04:31:37;36.58;;;23.17;;
29452;SDS011;16424;50.956;5.320;2022-12-07T04:34:03;37.67;;;22.17;;
29452;SDS011;16424;50.956;5.320;2022-12-07T04:36:29;33.00;;;21.83;;
29452;SDS011;16424;50.956;5.320;2022-12-07T04:38:56;34.10;;;20.67;;
29452;SDS011;16424;50.956;5.320;2022-12-07T04:41:22;36.60;;;21.75;;
29452;SDS011;16424;50.956;5.320;2022-12-07T04:43:55;38.22;;;24.00;;
29452;SDS011;16424;50.956;5.320;2022-12-07T04:46:22;43.15;;;25.63;;
29452;SDS011;16424;50.956;5.320;2022-12-07T04:48:49;47.58;;;28.50;;
29452;SDS011;16424;50.956;5.320;2022-12-07T04:51:15;40.50;;;25.23;;
29452;SDS011;16424;50.956;5.320;2022-12-07T04:53:45;38.35;;;24.75;;
29452;SDS011;16424;50.956;5.320;2022-12-07T04:56:11;42.83;;;24.92;;
29452;SDS011;16424;50.956;5.320;2022-12-07T04:58:36;44.03;;;24.38;;
29452;SDS011;16424;50.956;5.320;2022-12-07T05:01:02;42.72;;;25.20;;
29452;SDS011;16424;50.956;5.320;2022-12-07T05:03:28;38.75;;;23.45;;
29452;SDS011;16424;50.956;5.320;2022-12-07T05:05:53;44.60;;;23.67;;
29452;SDS011;16424;50.956;5.320;2022-12-07T05:08:19;44.47;;;23.67;;
29452;SDS011;16424;50.956;5.320;2022-12-07T05:10:45;39.85;;;22.10;;
29452;SDS011;16424;50.956;5.320;2022-12-07T05:13:10;44.05;;;24.45;;
29452;SDS011;16424;50.956;5.320;2022-12-07T05:15:36;42.58;;;24.17;;
29452;SDS011;16424;50.956;5.320;2022-12-07T05:18:01;46.17;;;24.52;;
29452;SDS011;16424;50.956;5.320;2022-12-07T05:20:28;42.55;;;24.13;;
29452;SDS011;16424;50.956;5.320;2022-12-07T05:22:54;39.45;;;22.98;;
29452;SDS011;16424;50.956;5.320;2022-12-07T05:25:19;36.80;;;23.95;;
29452;SDS011;16424;50.956;5.320;2022-12-07T05:27:45;46.55;;;25.95;;
29452;SDS011;16424;50.956;5.320;2022-12-07T05:30:11;42.35;;;25.42;;
29452;SDS011;16424;50.956;5.320;2022-12-07T05:32:37;47.63;;;25.90;;
29452;SDS011;16424;50.956;5.320;2022-12-07T05:35:03;43.88;;;26.05;;
29452;SDS011;16424;50.956;5.320;2022-12-07T05:37:28;40.78;;;24.73;;
29452;SDS011;16424;50.956;5.320;2022-12-07T05:39:54;44.53;;;24.38;;
29452;SDS011;16424;50.956;5.320;2022-12-07T05:42:20;48.22;;;25.75;;
29452;SDS011;16424;50.956;5.320;2022-12-07T05:44:46;45.20;;;26.25;;
29452;SDS011;16424;50.956;5.320;2022-12-07T05:47:12;42.75;;;24.90;;
29452;SDS011;16424;50.956;5.320;2022-12-07T05:49:39;48.10;;;25.60;;
29452;SDS011;16424;50.956;5.320;2022-12-07T05:52:04;43.35;;;24.27;;
29452;SDS011;16424;50.956;5.320;2022-12-07T05:54:30;40.25;;;24.75;;
29452;SDS011;16424;50.956;5.320;2022-12-07T05:56:56;41.15;;;24.83;;
29452;SDS011;16424;50.956;5.320;2022-12-07T05:59:22;53.55;;;25.67;;
29452;SDS011;16424;50.956;5.320;2022-12-07T06:04:22;68.82;;;28.05;;
29452;SDS011;16424;50.956;5.320;2022-12-07T06:06:49;42.22;;;25.65;;
29452;SDS011;16424;50.956;5.320;2022-12-07T06:09:16;41.67;;;24.65;;
29452;SDS011;16424;50.956;5.320;2022-12-07T06:11:43;45.05;;;25.70;;
29452;SDS011;16424;50.956;5.320;2022-12-07T06:14:28;40.53;;;25.42;;
29452;SDS011;16424;50.956;5.320;2022-12-07T06:16:53;42.33;;;24.80;;
29452;SDS011;16424;50.956;5.320;2022-12-07T06:19:19;59.63;;;26.02;;
29452;SDS011;16424;50.956;5.320;2022-12-07T06:21:45;43.90;;;25.35;;
29452;SDS011;16424;50.956;5.320;2022-12-07T06:24:11;48.42;;;26.27;;
29452;SDS011;16424;50.956;5.320;2022-12-07T06:26:37;46.03;;;26.65;;
29452;SDS011;16424;50.956;5.320;2022-12-07T06:29:03;47.22;;;25.77;;
29452;SDS011;16424;50.956;5.320;2022-12-07T06:31:29;47.40;;;26.20;;
29452;SDS011;16424;50.956;5.320;2022-12-07T06:34:01;44.63;;;26.58;;
29452;SDS011;16424;50.956;5.320;2022-12-07T06:36:28;42.78;;;24.60;;
29452;SDS011;16424;50.956;5.320;2022-12-07T06:38:54;46.15;;;25.17;;
29452;SDS011;16424;50.956;5.320;2022-12-07T06:41:20;38.40;;;23.42;;
29452;SDS011;16424;50.956;5.320;2022-12-07T06:43:46;51.28;;;24.52;;
29452;SDS011;16424;50.956;5.320;2022-12-07T06:46:12;42.90;;;23.48;;
29452;SDS011;16424;50.956;5.320;2022-12-07T06:48:39;43.83;;;24.75;;
29452;SDS011;16424;50.956;5.320;2022-12-07T06:51:05;46.15;;;25.00;;
29452;SDS011;16424;50.956;5.320;2022-12-07T06:53:30;46.47;;;25.95;;
29452;SDS011;16424;50.956;5.320;2022-12-07T06:55:56;44.95;;;23.80;;
29452;SDS011;16424;50.956;5.320;2022-12-07T06:58:22;46.55;;;25.83;;
29452;SDS011;16424;50.956;5.320;2022-12-07T07:00:48;48.17;;;25.60;;
29452;SDS011;16424;50.956;5.320;2022-12-07T07:03:14;44.25;;;25.65;;
29452;SDS011;16424;50.956;5.320;2022-12-07T07:05:41;39.80;;;25.13;;
29452;SDS011;16424;50.956;5.320;2022-12-07T07:08:07;46.33;;;27.58;;
29452;SDS011;16424;50.956;5.320;2022-12-07T07:10:33;48.40;;;26.42;;
29452;SDS011;16424;50.956;5.320;2022-12-07T07:12:58;39.42;;;23.75;;
29452;SDS011;16424;50.956;5.320;2022-12-07T07:15:24;36.05;;;22.77;;
29452;SDS011;16424;50.956;5.320;2022-12-07T07:17:50;40.85;;;23.85;;
29452;SDS011;16424;50.956;5.320;2022-12-07T07:20:15;39.55;;;23.30;;
29452;SDS011;16424;50.956;5.320;2022-12-07T07:22:41;37.88;;;23.35;;
29452;SDS011;16424;50.956;5.320;2022-12-07T07:25:07;41.13;;;22.77;;
29452;SDS011;16424;50.956;5.320;2022-12-07T07:27:33;43.08;;;23.70;;
29452;SDS011;16424;50.956;5.320;2022-12-07T07:29:58;43.00;;;24.75;;
29452;SDS011;16424;50.956;5.320;2022-12-07T07:32:24;33.95;;;23.40;;
29452;SDS011;16424;50.956;5.320;2022-12-07T07:34:50;38.45;;;22.27;;
29452;SDS011;16424;50.956;5.320;2022-12-07T07:37:15;35.47;;;22.75;;
29452;SDS011;16424;50.956;5.320;2022-12-07T07:39:41;44.40;;;25.88;;
29452;SDS011;16424;50.956;5.320;2022-12-07T07:42:07;48.60;;;25.10;;
29452;SDS011;16424;50.956;5.320;2022-12-07T07:44:33;49.92;;;24.95;;
29452;SDS011;16424;50.956;5.320;2022-12-07T07:46:59;41.45;;;23.17;;
29452;SDS011;16424;50.956;5.320;2022-12-07T07:49:25;40.83;;;23.73;;
29452;SDS011;16424;50.956;5.320;2022-12-07T07:51:51;45.70;;;23.75;;
29452;SDS011;16424;50.956;5.320;2022-12-07T07:54:16;50.08;;;24.50;;
29452;SDS011;16424;50.956;5.320;2022-12-07T07:56:42;36.78;;;24.35;;
29452;SDS011;16424;50.956;5.320;2022-12-07T07:59:08;42.95;;;23.42;;
29452;SDS011;16424;50.956;5.320;2022-12-07T08:01:33;47.25;;;23.52;;
29452;SDS011;16424;50.956;5.320;2022-12-07T08:03:59;41.45;;;23.02;;
29452;SDS011;16424;50.956;5.320;2022-12-07T08:06:26;359.25;;;40.80;;
29452;SDS011;16424;50.956;5.320;2022-12-07T08:08:51;63.88;;;27.83;;
29452;SDS011;16424;50.956;5.320;2022-12-07T08:11:17;55.95;;;27.70;;
29452;SDS011;16424;50.956;5.320;2022-12-07T08:13:44;60.20;;;26.67;;
29452;SDS011;16424;50.956;5.320;2022-12-07T08:16:14;54.40;;;26.85;;
29452;SDS011;16424;50.956;5.320;2022-12-07T08:18:40;53.45;;;26.83;;
29452;SDS011;16424;50.956;5.320;2022-12-07T08:21:07;45.55;;;24.85;;
29452;SDS011;16424;50.956;5.320;2022-12-07T08:23:35;46.92;;;23.73;;
29452;SDS011;16424;50.956;5.320;2022-12-07T08:26:01;37.45;;;21.30;;
29452;SDS011;16424;50.956;5.320;2022-12-07T08:28:28;35.08;;;20.38;;
29452;SDS011;16424;50.956;5.320;2022-12-07T08:31:00;30.35;;;19.35;;
29452;SDS011;16424;50.956;5.320;2022-12-07T08:33:26;36.80;;;19.50;;
29452;SDS011;16424;50.956;5.320;2022-12-07T08:35:52;31.35;;;18.65;;
29452;SDS011;16424;50.956;5.320;2022-12-07T08:38:18;28.60;;;18.13;;
29452;SDS011;16424;50.956;5.320;2022-12-07T08:40:44;23.40;;;15.68;;
29452;SDS011;16424;50.956;5.320;2022-12-07T08:43:09;28.60;;;16.13;;
29452;SDS011;16424;50.956;5.320;2022-12-07T08:45:35;24.42;;;13.98;;
29452;SDS011;16424;50.956;5.320;2022-12-07T08:48:05;24.40;;;13.65;;
29452;SDS011;16424;50.956;5.320;2022-12-07T08:50:33;25.10;;;13.20;;
29452;SDS011;16424;50.956;5.320;2022-12-07T08:53:01;23.52;;;12.18;;
29452;SDS011;16424;50.956;5.320;2022-12-07T08:55:29;24.77;;;11.80;;
29452;SDS011;16424;50.956;5.320;2022-12-07T08:57:56;16.45;;;10.98;;
29452;SDS011;16424;50.956;5.320;2022-12-07T09:00:23;17.45;;;12.35;;
29452;SDS011;16424;50.956;5.320;2022-12-07T09:02:50;19.52;;;12.30;;
29452;SDS011;16424;50.956;5.320;2022-12-07T09:05:16;19.42;;;11.52;;
29452;SDS011;16424;50.956;5.320;2022-12-07T09:07:43;17.52;;;10.80;;
29452;SDS011;16424;50.956;5.320;2022-12-07T09:10:10;19.63;;;10.23;;
29452;SDS011;16424;50.956;5.320;2022-12-07T09:12:36;16.17;;;9.60;;
29452;SDS011;16424;50.956;5.320;2022-12-07T09:15:02;15.00;;;9.43;;
29452;SDS011;16424;50.956;5.320;2022-12-07T09:17:31;18.65;;;9.88;;
29452;SDS011;16424;50.956;5.320;2022-12-07T09:19:58;16.17;;;9.73;;
29452;SDS011;16424;50.956;5.320;2022-12-07T09:22:27;15.30;;;9.43;;
29452;SDS011;16424;50.956;5.320;2022-12-07T09:24:54;18.13;;;9.40;;
29452;SDS011;16424;50.956;5.320;2022-12-07T09:27:20;16.52;;;9.32;;
29452;SDS011;16424;50.956;5.320;2022-12-07T09:29:46;16.55;;;9.75;;
29452;SDS011;16424;50.956;5.320;2022-12-07T09:32:11;19.42;;;9.77;;
29452;SDS011;16424;50.956;5.320;2022-12-07T09:34:37;12.60;;;8.05;;
29452;SDS011;16424;50.956;5.320;2022-12-07T09:37:03;78.60;;;11.85;;
29452;SDS011;16424;50.956;5.320;2022-12-07T09:39:29;18.60;;;9.57;;
29452;SDS011;16424;50.956;5.320;2022-12-07T09:41:56;19.25;;;11.55;;
29452;SDS011;16424;50.956;5.320;2022-12-07T09:44:24;16.23;;;9.27;;
29452;SDS011;16424;50.956;5.320;2022-12-07T09:46:51;18.83;;;9.45;;
29452;SDS011;16424;50.956;5.320;2022-12-07T09:49:19;20.08;;;8.80;;
29452;SDS011;16424;50.956;5.320;2022-12-07T09:51:47;17.40;;;8.50;;
29452;SDS011;16424;50.956;5.320;2022-12-07T09:54:14;16.08;;;9.25;;
29452;SDS011;16424;50.956;5.320;2022-12-07T09:56:44;19.85;;;8.93;;
29452;SDS011;16424;50.956;5.320;2022-12-07T09:59:12;18.65;;;8.88;;
29452;SDS011;16424;50.956;5.320;2022-12-07T10:01:42;16.33;;;9.60;;
29452;SDS011;16424;50.956;5.320;2022-12-07T10:04:19;14.60;;;8.75;;
29452;SDS011;16424;50.956;5.320;2022-12-07T10:06:47;19.73;;;10.18;;
29452;SDS011;16424;50.956;5.320;2022-12-07T10:09:14;15.35;;;8.68;;
29452;SDS011;16424;50.956;5.320;2022-12-07T10:12:00;16.42;;;9.32;;
29452;SDS011;16424;50.956;5.320;2022-12-07T10:14:29;16.42;;;8.25;;
29452;SDS011;16424;50.956;5.320;2022-12-07T10:16:55;18.20;;;8.30;;
29452;SDS011;16424;50.956;5.320;2022-12-07T10:19:29;10.43;;;6.95;;
29452;SDS011;16424;50.956;5.320;2022-12-07T10:22:10;16.15;;;5.95;;
29452;SDS011;16424;50.956;5.320;2022-12-07T10:24:38;11.18;;;6.03;;
29452;SDS011;16424;50.956;5.320;2022-12-07T10:27:16;23.90;;;6.32;;
29452;SDS011;16424;50.956;5.320;2022-12-07T10:29:51;16.48;;;6.32;;
29452;SDS011;16424;50.956;5.320;2022-12-07T10:34:43;16.95;;;7.60;;
29452;SDS011;16424;50.956;5.320;2022-12-07T10:42:20;21.90;;;6.70;;
29452;SDS011;16424;50.956;5.320;2022-12-07T10:47:47;13.40;;;6.47;;
29452;SDS011;16424;50.956;5.320;2022-12-07T10:53:20;9.73;;;5.72;;
29452;SDS011;16424;50.956;5.320;2022-12-07T10:58:36;12.20;;;5.70;;
29452;SDS011;16424;50.956;5.320;2022-12-07T11:01:26;12.18;;;4.85;;
29452;SDS011;16424;50.956;5.320;2022-12-07T11:04:14;11.35;;;5.28;;
29452;SDS011;16424;50.956;5.320;2022-12-07T11:10:11;12.50;;;4.95;;
29452;SDS011;16424;50.956;5.320;2022-12-07T11:21:56;12.10;;;5.57;;
29452;SDS011;16424;50.956;5.320;2022-12-07T11:27:21;9.55;;;5.22;;
29452;SDS011;16424;50.956;5.320;2022-12-07T11:37:33;17.77;;;5.82;;
29452;SDS011;16424;50.956;5.320;2022-12-07T11:40:05;10.25;;;5.00;;
29452;SDS011;16424;50.956;5.320;2022-12-07T11:42:41;12.05;;;5.28;;
29452;SDS011;16424;50.956;5.320;2022-12-07T11:45:36;11.98;;;5.47;;
29452;SDS011;16424;50.956;5.320;2022-12-07T11:48:10;12.07;;;6.38;;
29452;SDS011;16424;50.956;5.320;2022-12-07T11:50:59;14.60;;;5.38;;
29452;SDS011;16424;50.956;5.320;2022-12-07T11:56:08;11.60;;;4.18;;
29452;SDS011;16424;50.956;5.320;2022-12-07T12:03:58;13.20;;;4.72;;
29452;SDS011;16424;50.956;5.320;2022-12-07T12:06:36;8.73;;;3.92;;
29452;SDS011;16424;50.956;5.320;2022-12-07T12:12:45;9.95;;;4.38;;
29452;SDS011;16424;50.956;5.320;2022-12-07T12:25:25;14.35;;;6.28;;
29452;SDS011;16424;50.956;5.320;2022-12-07T12:27:55;17.83;;;4.95;;
29452;SDS011;16424;50.956;5.320;2022-12-07T12:30:29;9.95;;;3.85;;
29452;SDS011;16424;50.956;5.320;2022-12-07T12:33:02;13.45;;;3.80;;
29452;SDS011;16424;50.956;5.320;2022-12-07T12:35:36;10.77;;;3.65;;
29452;SDS011;16424;50.956;5.320;2022-12-07T12:46:59;10.23;;;3.70;;
29452;SDS011;16424;50.956;5.320;2022-12-07T12:49:54;9.25;;;3.60;;
29452;SDS011;16424;50.956;5.320;2022-12-07T12:57:35;9.20;;;3.65;;
29452;SDS011;16424;50.956;5.320;2022-12-07T13:00:14;9.27;;;4.18;;
29452;SDS011;16424;50.956;5.320;2022-12-07T13:02:56;8.13;;;2.80;;
29452;SDS011;16424;50.956;5.320;2022-12-07T13:05:33;7.38;;;2.65;;
29452;SDS011;16424;50.956;5.320;2022-12-07T13:08:00;8.30;;;3.00;;
29452;SDS011;16424;50.956;5.320;2022-12-07T13:20:46;11.55;;;2.97;;
29452;SDS011;16424;50.956;5.320;2022-12-07T13:23:12;4.78;;;2.42;;
29452;SDS011;16424;50.956;5.320;2022-12-07T13:25:44;7.82;;;2.83;;
29452;SDS011;16424;50.956;5.320;2022-12-07T13:28:25;13.55;;;3.35;;
29452;SDS011;16424;50.956;5.320;2022-12-07T13:31:03;7.28;;;3.10;;
29452;SDS011;16424;50.956;5.320;2022-12-07T13:33:50;7.85;;;2.25;;
29452;SDS011;16424;50.956;5.320;2022-12-07T13:36:20;4.57;;;2.08;;
29452;SDS011;16424;50.956;5.320;2022-12-07T13:38:50;6.15;;;2.55;;
29452;SDS011;16424;50.956;5.320;2022-12-07T13:41:18;6.97;;;2.83;;
29452;SDS011;16424;50.956;5.320;2022-12-07T13:43:59;9.32;;;2.40;;
29452;SDS011;16424;50.956;5.320;2022-12-07T13:46:51;5.97;;;2.33;;
29452;SDS011;16424;50.956;5.320;2022-12-07T13:52:17;8.48;;;2.28;;
29452;SDS011;16424;50.956;5.320;2022-12-07T13:57:22;7.53;;;1.85;;
29452;SDS011;16424;50.956;5.320;2022-12-07T13:59:50;7.15;;;1.98;;
29452;SDS011;16424;50.956;5.320;2022-12-07T14:02:20;6.28;;;1.83;;
29452;SDS011;16424;50.956;5.320;2022-12-07T14:05:06;6.32;;;2.28;;
29452;SDS011;16424;50.956;5.320;2022-12-07T14:07:34;6.45;;;2.22;;
29452;SDS011;16424;50.956;5.320;2022-12-07T14:10:03;8.73;;;3.08;;
29452;SDS011;16424;50.956;5.320;2022-12-07T14:12:31;8.57;;;2.70;;
29452;SDS011;16424;50.956;5.320;2022-12-07T14:15:00;8.73;;;2.80;;
29452;SDS011;16424;50.956;5.320;2022-12-07T14:17:27;10.13;;;3.65;;
29452;SDS011;16424;50.956;5.320;2022-12-07T14:20:02;6.90;;;2.55;;
29452;SDS011;16424;50.956;5.320;2022-12-07T14:22:36;10.30;;;2.83;;
29452;SDS011;16424;50.956;5.320;2022-12-07T14:25:16;6.07;;;3.20;;
29452;SDS011;16424;50.956;5.320;2022-12-07T14:27:48;9.52;;;3.90;;
29452;SDS011;16424;50.956;5.320;2022-12-07T14:30:28;7.95;;;3.22;;
29452;SDS011;16424;50.956;5.320;2022-12-07T14:32:59;7.25;;;3.90;;
29452;SDS011;16424;50.956;5.320;2022-12-07T14:35:29;6.88;;;4.43;;
29452;SDS011;16424;50.956;5.320;2022-12-07T14:37:56;10.82;;;4.32;;
29452;SDS011;16424;50.956;5.320;2022-12-07T14:40:24;9.85;;;4.68;;
29452;SDS011;16424;50.956;5.320;2022-12-07T14:43:10;14.23;;;5.72;;
29452;SDS011;16424;50.956;5.320;2022-12-07T14:45:39;10.98;;;4.82;;
29452;SDS011;16424;50.956;5.320;2022-12-07T14:48:05;17.77;;;5.45;;
29452;SDS011;16424;50.956;5.320;2022-12-07T14:50:35;15.82;;;6.03;;
29452;SDS011;16424;50.956;5.320;2022-12-07T14:53:08;14.98;;;5.55;;
29452;SDS011;16424;50.956;5.320;2022-12-07T14:55:40;12.40;;;6.00;;
29452;SDS011;16424;50.956;5.320;2022-12-07T14:58:06;13.73;;;6.38;;
29452;SDS011;16424;50.956;5.320;2022-12-07T15:00:34;13.10;;;6.35;;
29452;SDS011;16424;50.956;5.320;2022-12-07T15:02:59;11.00;;;6.40;;
29452;SDS011;16424;50.956;5.320;2022-12-07T15:05:25;12.95;;;6.35;;
29452;SDS011;16424;50.956;5.320;2022-12-07T15:07:51;14.93;;;6.63;;
29452;SDS011;16424;50.956;5.320;2022-12-07T15:10:24;12.30;;;5.85;;
29452;SDS011;16424;50.956;5.320;2022-12-07T15:12:55;16.75;;;6.32;;
29452;SDS011;16424;50.956;5.320;2022-12-07T15:15:41;11.60;;;6.10;;
29452;SDS011;16424;50.956;5.320;2022-12-07T15:18:06;15.98;;;6.45;;
29452;SDS011;16424;50.956;5.320;2022-12-07T15:20:32;11.80;;;6.50;;
29452;SDS011;16424;50.956;5.320;2022-12-07T15:22:58;12.75;;;7.18;;
29452;SDS011;16424;50.956;5.320;2022-12-07T15:25:24;17.02;;;7.82;;
29452;SDS011;16424;50.956;5.320;2022-12-07T15:27:49;7.65;;;5.57;;
29452;SDS011;16424;50.956;5.320;2022-12-07T15:30:15;14.20;;;6.28;;
29452;SDS011;16424;50.956;5.320;2022-12-07T15:32:41;16.20;;;5.85;;
29452;SDS011;16424;50.956;5.320;2022-12-07T15:35:07;13.70;;;5.63;;
29452;SDS011;16424;50.956;5.320;2022-12-07T15:37:32;12.80;;;6.47;;
29452;SDS011;16424;50.956;5.320;2022-12-07T15:39:58;13.10;;;7.40;;
29452;SDS011;16424;50.956;5.320;2022-12-07T15:42:24;13.27;;;7.10;;
29452;SDS011;16424;50.956;5.320;2022-12-07T15:44:49;18.13;;;7.20;;
29452;SDS011;16424;50.956;5.320;2022-12-07T15:47:43;13.27;;;6.38;;
29452;SDS011;16424;50.956;5.320;2022-12-07T15:50:13;11.40;;;5.85;;
29452;SDS011;16424;50.956;5.320;2022-12-07T15:52:40;9.63;;;5.90;;
29452;SDS011;16424;50.956;5.320;2022-12-07T15:55:06;7.93;;;4.72;;
29452;SDS011;16424;50.956;5.320;2022-12-07T15:57:32;8.60;;;4.70;;
29452;SDS011;16424;50.956;5.320;2022-12-07T16:00:00;6.70;;;4.50;;
29452;SDS011;16424;50.956;5.320;2022-12-07T16:02:26;9.50;;;3.80;;
29452;SDS011;16424;50.956;5.320;2022-12-07T16:04:51;8.90;;;3.80;;
29452;SDS011;16424;50.956;5.320;2022-12-07T16:07:18;7.63;;;3.60;;
29452;SDS011;16424;50.956;5.320;2022-12-07T16:09:44;7.15;;;3.30;;
29452;SDS011;16424;50.956;5.320;2022-12-07T16:12:11;5.60;;;3.72;;
29452;SDS011;16424;50.956;5.320;2022-12-07T16:14:37;7.70;;;3.20;;
29452;SDS011;16424;50.956;5.320;2022-12-07T16:17:04;5.40;;;2.80;;
29452;SDS011;16424;50.956;5.320;2022-12-07T16:19:30;9.90;;;3.72;;
29452;SDS011;16424;50.956;5.320;2022-12-07T16:21:57;7.47;;;3.58;;
29452;SDS011;16424;50.956;5.320;2022-12-07T16:24:22;9.18;;;4.07;;
29452;SDS011;16424;50.956;5.320;2022-12-07T16:26:49;6.07;;;3.90;;
29452;SDS011;16424;50.956;5.320;2022-12-07T16:29:16;9.05;;;4.32;;
29452;SDS011;16424;50.956;5.320;2022-12-07T16:31:44;6.85;;;3.80;;
29452;SDS011;16424;50.956;5.320;2022-12-07T16:34:10;6.43;;;3.20;;
29452;SDS011;16424;50.956;5.320;2022-12-07T16:36:35;4.53;;;3.60;;
29452;SDS011;16424;50.956;5.320;2022-12-07T16:39:01;6.55;;;3.75;;
29452;SDS011;16424;50.956;5.320;2022-12-07T16:41:27;5.95;;;3.85;;
29452;SDS011;16424;50.956;5.320;2022-12-07T16:43:53;6.28;;;3.72;;
29452;SDS011;16424;50.956;5.320;2022-12-07T16:46:19;7.63;;;3.63;;